createdAt,value
2022-09-28T00:08:14.519Z,0.1
2022-09-28T00:18:14.630Z,0.1
2022-09-28T00:28:14.702Z,0.1
2022-09-28T00:38:14.617Z,0.2
2022-09-28T00:48:14.699Z,0.2
2022-09-28T00:58:14.619Z,0.2
2022-09-28T01:08:14.700Z,0.2
2022-09-28T01:18:14.621Z,0.2
2022-09-28T01:28:14.693Z,0.2
2022-09-28T01:38:14.821Z,0.3
2022-09-28T01:48:14.685Z,0.3
2022-09-28T01:58:14.805Z,0.3
2022-09-28T02:08:14.670Z,0.3
2022-09-28T02:18:14.806Z,0.3
2022-09-28T02:28:14.668Z,0.3
2022-09-28T02:38:14.805Z,0.4
2022-09-28T02:48:14.676Z,0.4
2022-09-28T02:58:14.803Z,0.4
2022-09-28T03:08:14.872Z,0.4
2022-09-28T03:18:14.788Z,0.4
2022-09-28T03:28:14.861Z,0.4
2022-09-28T03:38:14.785Z,0.5
2022-09-28T03:48:14.857Z,0.5
2022-09-28T03:58:14.787Z,0.5
2022-09-28T04:08:14.843Z,0.5
2022-09-28T04:18:14.974Z,0.5
2022-09-28T04:28:14.848Z,0.5
2022-09-28T04:38:14.986Z,0.6
2022-09-28T04:48:14.851Z,0.6
2022-09-28T04:58:14.956Z,0.6
2022-09-28T05:08:14.842Z,0.6
2022-09-28T05:18:14.963Z,0.6
2022-09-28T05:28:14.841Z,0.6
2022-09-28T05:38:14.973Z,0.7
2022-09-28T05:48:15.021Z,0.7
2022-09-28T05:58:14.944Z,0.7
2022-09-28T06:08:15.029Z,0.7
2022-09-28T06:18:14.975Z,0.7
2022-09-28T06:28:15.025Z,0.7
2022-09-28T06:38:14.965Z,0.8
2022-09-28T06:48:15.014Z,0.8
2022-09-28T06:58:15.142Z,0.8
2022-09-28T07:08:15.026Z,0.9
2022-09-28T07:18:15.179Z,0.9
2022-09-28T07:28:15.007Z,0.9
2022-09-28T07:38:15.121Z,0.9
2022-09-28T07:48:14.996Z,0.9
2022-09-28T07:58:15.124Z,0.9
2022-09-28T08:08:14.999Z,1
2022-09-28T08:18:15.120Z,1
2022-09-28T08:28:15.186Z,1
2022-09-28T08:38:15.107Z,1
2022-09-28T08:48:15.191Z,1
2022-09-28T08:58:15.129Z,1
2022-09-28T09:08:15.217Z,1.1
2022-09-28T09:18:16.706Z,1.1
2022-09-28T09:28:15.181Z,1.1
2022-09-28T09:38:15.305Z,1.1
2022-09-28T09:48:15.194Z,1.1
2022-09-28T09:58:15.320Z,1.1
2022-09-28T10:08:15.194Z,1.2
2022-09-28T10:18:15.452Z,1.2
2022-09-28T10:28:15.169Z,1.2
2022-09-28T10:38:15.295Z,1.2
2022-09-28T10:48:15.180Z,1.2
2022-09-28T10:58:15.326Z,1.2
2022-09-28T11:08:15.385Z,1.3
2022-09-28T11:18:15.284Z,1.3
2022-09-28T11:28:15.343Z,1.3
2022-09-28T11:38:15.297Z,1.3
2022-09-28T11:48:15.352Z,1.3
2022-09-28T11:58:15.262Z,1.3
2022-09-28T12:08:15.348Z,1.4
2022-09-28T12:18:15.323Z,1.4
2022-09-28T12:28:15.343Z,1.4
2022-09-28T12:38:15.459Z,1.4
2022-09-28T12:48:15.356Z,1.4
2022-09-28T12:58:15.460Z,1.4
2022-09-28T13:08:15.343Z,1.5
2022-09-28T13:18:15.466Z,1.5
2022-09-28T13:28:15.342Z,1.5
2022-09-28T13:38:15.466Z,1.5
2022-09-28T13:48:15.518Z,1.5
2022-09-28T13:58:15.475Z,1.5
2022-09-28T14:08:15.541Z,1.6
2022-09-28T14:18:15.452Z,1.6
2022-09-28T14:28:15.502Z,1.6
2022-09-28T14:38:15.440Z,1.6
2022-09-28T14:48:15.389Z,1.6
2022-09-28T14:58:15.521Z,1.6
2022-09-28T15:08:15.412Z,1.7
2022-09-28T15:18:15.508Z,1.7
2022-09-28T15:28:15.584Z,1.7
2022-09-28T15:38:15.512Z,1.8
2022-09-28T15:48:15.588Z,1.8
2022-09-28T15:58:15.669Z,1.8
2022-09-28T16:08:15.577Z,1.8
2022-09-28T16:18:15.494Z,1.8
2022-09-28T16:28:15.571Z,1.8
2022-09-28T16:38:15.718Z,1.9
2022-09-28T16:48:15.580Z,1.9
2022-09-28T16:58:15.725Z,1.9
2022-09-28T17:08:15.561Z,1.9
2022-09-28T17:18:15.766Z,1.9
2022-09-28T17:28:15.578Z,1.9
2022-09-28T17:38:15.706Z,2
2022-09-28T17:48:15.792Z,2
2022-09-28T17:58:15.695Z,2
2022-09-28T18:08:15.769Z,2
2022-09-28T18:18:15.692Z,2
2022-09-28T18:28:15.745Z,2
2022-09-28T18:38:15.672Z,2.1
2022-09-28T18:48:15.751Z,2.1
2022-09-28T18:58:15.685Z,2.1
2022-09-28T19:08:15.756Z,2.2
2022-09-28T19:18:15.893Z,2.2
2022-09-28T19:28:15.731Z,2.2
2022-09-28T19:38:15.951Z,2.2
2022-09-28T19:48:15.753Z,2.2
2022-09-28T19:58:15.854Z,2.2
2022-09-28T20:08:15.950Z,2.3
2022-09-28T20:18:15.830Z,2.3
2022-09-28T20:28:15.894Z,2.3
2022-09-28T20:38:15.797Z,2.4
2022-09-28T20:48:15.939Z,2.4
2022-09-28T20:58:15.963Z,2.4
2022-09-28T21:08:15.915Z,2.4
2022-09-28T21:18:15.881Z,2.4
2022-09-28T21:28:15.823Z,2.4
2022-09-28T21:38:15.837Z,2.5
2022-09-28T21:48:15.910Z,2.5
2022-09-28T21:58:16.030Z,2.5
2022-09-28T22:08:15.892Z,2.6
2022-09-28T22:18:16.030Z,2.6
2022-09-28T22:28:15.912Z,2.6
2022-09-28T22:38:16.027Z,2.7
2022-09-28T22:48:15.885Z,2.7
2022-09-28T22:58:16.002Z,2.7
2022-09-28T23:08:15.879Z,0
2022-09-28T23:18:16.020Z,0
2022-09-28T23:28:16.109Z,0
2022-09-28T23:38:16.015Z,0.1
2022-09-28T23:48:16.081Z,0.1
2022-09-28T23:58:16.008Z,0.1
